KHUL/HUL METAR and TAF weather

Enter ICAO airport designator
Station Type Date Time Source
KHUL METAR 2019/09/20 08:53 UTC NOAA

KHUL 200853Z AUTO 00000KT 10SM CLR 06/04 A3010 RMK AO2 SLP195 T00560039 58008


Station Type Date Time Source
KHUL Decoded METAR 2019/09/20 08:53 UTC NOAA

HOULTON INT'L AIRPORT, ME, United States (KHUL) 46-07N 067-48W 150M
Sep 20, 2019 - 04:53 AM EDT / 2019.09.20 0853 UTC
Wind: Calm:0
Visibility: 10 mile(s):0
Sky conditions: clear
Temperature: 42.1 F (5.6 C)
Dew Point: 39.0 F (3.9 C)
Relative Humidity: 88%
Pressure (altimeter): 30.1 in. Hg (1019 hPa)
Pressure tendency: 0.02 inches (0.8 hPa) lower than three hours ago
ob: KHUL 200853Z AUTO 00000KT 10SM CLR 06/04 A3010 RMK AO2 SLP195 T00560039 58008
cycle: 9

Station Type Date Time Source
KHUL TAF 2019/09/20 06:30 UTC NOAA

TAF KHUL 200527Z 2006/2106 26006KT P6SM BKN200
FM201700 29010KT P6SM SCT060
FM201900 32010G18KT P6SM BKN050
FM210000 32008KT P6SM SCT050

Example: see airport list